Time;durP1;ratioP1;P1;durP2;ratioP2;P2;SDS_P1;SDS_P2;PMS_P1;PMS_P2;Temp;Humidity;BMP_temperature;BMP_pressure;BME280_temperature;BME280_humidity;BME280_pressure;Samples;Min_cycle;Max_cycle;Signal;HPM_P1;HPM_P2
2022/12/27 00:01:33;;;;;;;;;8.00;8.00;;;;;;;;5203338;28;8836;-72
2022/12/27 00:04:04;;;;;;;;;3.00;3.00;;;;;;;;5211821;28;8896;-72
2022/12/27 00:06:35;;;;;;;;;1.80;1.80;;;;;;;;5194605;28;8888;-72
2022/12/27 00:09:06;;;;;;;;;0.00;0.00;;;;;;;;5229294;28;9560;-73
2022/12/27 00:11:37;;;;;;;;;0.00;0.00;;;;;;;;5229162;28;8783;-73
2022/12/27 00:14:09;;;;;;;;;0.00;0.00;;;;;;;;5211289;28;8783;-73
2022/12/27 00:16:40;;;;;;;;;0.00;0.00;;;;;;;;5211403;28;9522;-73
2022/12/27 00:19:11;;;;;;;;;0.00;0.00;;;;;;;;5211216;28;8783;-73
2022/12/27 00:21:42;;;;;;;;;3.00;3.00;;;;;;;;5210702;28;8892;-72
2022/12/27 00:24:13;;;;;;;;;6.00;6.00;;;;;;;;5211570;28;11444;-72
2022/12/27 00:26:44;;;;;;;;;3.00;3.00;;;;;;;;5211362;28;8787;-71
2022/12/27 00:29:15;;;;;;;;;1.00;1.00;;;;;;;;5211165;28;8783;-72
2022/12/27 00:31:46;;;;;;;;;4.40;4.40;;;;;;;;5210694;28;8806;-71
2022/12/27 00:34:35;;;;;;;;;6.40;6.40;;;;;;;;5228623;28;8787;-71
2022/12/27 00:37:06;;;;;;;;;2.50;2.50;;;;;;;;5228642;28;8834;-71
2022/12/27 00:39:37;;;;;;;;;3.25;3.25;;;;;;;;5210908;28;10281;-71
2022/12/27 00:42:08;;;;;;;;;4.00;4.00;;;;;;;;5228227;28;11399;-71
2022/12/27 00:44:39;;;;;;;;;10.40;10.40;;;;;;;;5211006;28;10636;-72
2022/12/27 00:47:10;;;;;;;;;6.00;6.00;;;;;;;;5228525;28;8803;-72
2022/12/27 00:49:41;;;;;;;;;7.50;7.50;;;;;;;;5228452;28;8791;-72
2022/12/27 00:52:30;;;;;;;;;4.00;4.00;;;;;;;;5213474;28;8767;-72
2022/12/27 00:55:19;;;;;;;;;9.00;8.60;;;;;;;;5211110;28;8807;-71
2022/12/27 00:57:50;;;;;;;;;12.40;12.40;;;;;;;;5227679;28;8787;-71
2022/12/27 01:00:40;;;;;;;;;7.00;7.00;;;;;;;;5210619;28;8837;-71
2022/12/27 01:03:11;;;;;;;;;8.50;8.50;;;;;;;;5193510;28;8787;-72
2022/12/27 01:05:42;;;;;;;;;6.50;6.50;;;;;;;;5210723;28;11825;-69
2022/12/27 01:08:31;;;;;;;;;4.00;4.00;;;;;;;;5228482;28;9394;-70
2022/12/27 01:11:02;;;;;;;;;5.00;4.50;;;;;;;;5228139;28;8805;-70
2022/12/27 01:13:33;;;;;;;;;4.40;4.40;;;;;;;;5193705;28;9969;-70
2022/12/27 01:16:12;;;;;;;;;6.00;6.00;;;;;;;;5227773;28;8790;-69
2022/12/27 01:18:43;;;;;;;;;8.20;8.20;;;;;;;;5227365;28;8807;-70
2022/12/27 01:21:15;;;;;;;;;7.00;7.00;;;;;;;;5193382;28;8827;-69
2022/12/27 01:24:05;;;;;;;;;1.00;1.00;;;;;;;;5227920;28;8825;-69
2022/12/27 01:26:36;;;;;;;;;12.00;12.00;;;;;;;;5227425;28;8845;-70
2022/12/27 01:29:11;;;;;;;;;8.20;8.20;;;;;;;;5227769;28;8783;-70
2022/12/27 01:31:42;;;;;;;;;8.60;8.60;;;;;;;;5209906;28;8795;-70
2022/12/27 01:34:13;;;;;;;;;6.80;6.80;;;;;;;;5209867;28;9520;-71
2022/12/27 01:37:02;;;;;;;;;5.20;5.20;;;;;;;;5212605;28;8775;-71
2022/12/27 01:39:33;;;;;;;;;3.80;3.80;;;;;;;;5227783;28;8786;-71
2022/12/27 01:44:56;;;;;;;;;4.00;4.00;;;;;;;;5225861;28;8897;-70
2022/12/27 01:47:37;;;;;;;;;2.80;2.80;;;;;;;;5192204;28;8827;-71
2022/12/27 01:50:08;;;;;;;;;19.80;19.80;;;;;;;;5184279;28;8793;-71
2022/12/27 01:52:46;;;;;;;;;21.20;20.20;;;;;;;;5203649;28;8933;-70
2022/12/27 01:55:17;;;;;;;;;5.60;5.60;;;;;;;;5207739;28;8803;-72
2022/12/27 01:57:50;;;;;;;;;7.00;7.00;;;;;;;;5193153;28;9526;-72
2022/12/27 02:00:21;;;;;;;;;3.00;3.00;;;;;;;;5192817;28;8806;-70
2022/12/27 02:02:54;;;;;;;;;11.60;11.60;;;;;;;;5208996;28;8787;-72
2022/12/27 02:05:43;;;;;;;;;5.20;5.20;;;;;;;;5208375;28;8799;-73
2022/12/27 02:08:35;;;;;;;;;9.40;9.40;;;;;;;;5208050;28;8798;-71
2022/12/27 02:11:07;;;;;;;;;8.00;8.00;;;;;;;;5224958;28;8863;-73
2022/12/27 02:13:40;;;;;;;;;9.00;8.60;;;;;;;;5191578;28;8789;-72
2022/12/27 02:16:12;;;;;;;;;6.20;6.20;;;;;;;;5191407;28;8835;-76
2022/12/27 02:18:45;;;;;;;;;6.00;6.00;;;;;;;;5191716;28;8844;-72
2022/12/27 02:21:26;;;;;;;;;9.80;9.40;;;;;;;;5214126;28;8822;-72
2022/12/27 02:24:18;;;;;;;;;12.00;12.00;;;;;;;;5184690;28;8828;-75
2022/12/27 02:27:23;;;;;;;;;4.00;4.00;;;;;;;;5214395;28;9535;-70
2022/12/27 02:30:02;;;;;;;;;11.20;11.20;;;;;;;;5192200;28;8814;-72
2022/12/27 02:32:54;;;;;;;;;12.40;11.60;;;;;;;;5209670;28;8799;-72
2022/12/27 02:35:31;;;;;;;;;17.60;17.60;;;;;;;;5175218;28;8846;-71
2022/12/27 02:38:29;;;;;;;;;18.00;18.00;;;;;;;;5226621;28;8837;-71
2022/12/27 02:53:02;;;;;;;;;6.00;6.00;;;;;;;;5226521;28;8766;-71
2022/12/27 02:53:06;;;;;;;;;21.00;21.00;;;;;;;;5208079;28;8771;-71
2022/12/27 02:58:55;;;;;;;;;13.40;13.40;;;;;;;;5226231;28;8774;-71
2022/12/27 03:04:53;;;;;;;;;9.80;9.80;;;;;;;;5207372;28;8825;-72
2022/12/27 03:07:44;;;;;;;;;10.40;10.40;;;;;;;;5191770;28;8786;-71
2022/12/27 03:16:20;;;;;;;;;6.00;6.00;;;;;;;;5204109;28;8793;-72
2022/12/27 03:19:09;;;;;;;;;7.00;7.00;;;;;;;;5171343;28;8899;-72
2022/12/27 03:27:29;;;;;;;;;6.40;6.40;;;;;;;;5205126;28;9521;-72
2022/12/27 03:33:13;;;;;;;;;10.80;10.80;;;;;;;;5225684;28;8767;-70
2022/12/27 03:38:01;;;;;;;;;6.20;6.20;;;;;;;;5208954;28;8774;-71
2022/12/27 03:38:46;;;;;;;;;7.60;7.60;;;;;;;;5207355;28;8814;-70
2022/12/27 03:44:34;;;;;;;;;10.80;10.80;;;;;;;;5229542;28;8782;-69
2022/12/27 03:47:38;;;;;;;;;9.00;8.60;;;;;;;;5229767;28;8779;-71
2022/12/27 03:50:20;;;;;;;;;10.00;10.00;;;;;;;;5195343;28;8782;-72
2022/12/27 03:52:55;;;;;;;;;7.40;7.40;;;;;;;;5195195;28;8914;-72
2022/12/27 03:55:26;;;;;;;;;9.00;9.00;;;;;;;;5195231;28;8794;-72
2022/12/27 03:58:16;;;;;;;;;7.20;7.20;;;;;;;;5229433;28;8957;-69
2022/12/27 04:01:05;;;;;;;;;4.40;4.40;;;;;;;;5229379;28;8822;-70
2022/12/27 04:03:37;;;;;;;;;6.00;6.00;;;;;;;;5229719;28;9600;-70
2022/12/27 04:06:08;;;;;;;;;4.00;4.00;;;;;;;;5195149;28;8817;-69
2022/12/27 04:34:42;;;;;;;;;24.20;22.80;;;;;;;;5228819;28;8798;-73
2022/12/27 04:37:33;;;;;;;;;11.20;11.20;;;;;;;;5227139;28;9514;-74
2022/12/27 04:57:11;;;;;;;;;15.40;15.00;;;;;;;;5210623;28;8803;-73
2022/12/27 05:02:32;;;;;;;;;12.40;12.00;;;;;;;;5228214;28;8787;-70
2022/12/27 05:05:22;;;;;;;;;6.60;6.60;;;;;;;;5228580;28;8787;-71
2022/12/27 05:13:58;;;;;;;;;7.00;7.00;;;;;;;;5207977;28;9591;-70
2022/12/27 05:16:49;;;;;;;;;15.00;13.40;;;;;;;;5206425;28;9516;-72
2022/12/27 05:19:20;;;;;;;;;13.00;13.00;;;;;;;;5187809;28;8820;-70
2022/12/27 05:27:30;;;;;;;;;6.80;6.80;;;;;;;;5206064;28;8814;-72
2022/12/27 05:30:01;;;;;;;;;4.00;4.00;;;;;;;;5204901;28;8879;-70
2022/12/27 05:32:33;;;;;;;;;20.00;20.00;;;;;;;;5225333;28;8867;-70
2022/12/27 05:35:04;;;;;;;;;15.00;15.00;;;;;;;;5207607;28;8803;-71
2022/12/27 05:37:35;;;;;;;;;8.60;8.60;;;;;;;;5207512;28;9273;-70
2022/12/27 05:40:07;;;;;;;;;5.20;5.20;;;;;;;;5207174;28;8842;-72
2022/12/27 05:42:38;;;;;;;;;10.80;10.80;;;;;;;;5188617;28;8813;-71
2022/12/27 05:45:09;;;;;;;;;9.00;9.00;;;;;;;;5207469;28;8826;-72
2022/12/27 05:47:58;;;;;;;;;9.80;9.80;;;;;;;;5207814;28;8826;-73
2022/12/27 05:50:29;;;;;;;;;6.00;6.00;;;;;;;;5224598;28;9502;-72
2022/12/27 05:53:13;;;;;;;;;17.60;17.60;;;;;;;;5208735;28;8779;-70
2022/12/27 05:55:51;;;;;;;;;12.00;12.00;;;;;;;;5209386;28;8855;-71
2022/12/27 05:58:23;;;;;;;;;12.20;12.20;;;;;;;;5192838;28;10436;-72
2022/12/27 06:00:54;;;;;;;;;9.80;9.80;;;;;;;;5207395;28;8826;-75
2022/12/27 06:03:25;;;;;;;;;13.40;13.40;;;;;;;;5220051;28;8806;-73
2022/12/27 06:06:00;;;;;;;;;13.00;13.00;;;;;;;;5182395;28;9581;-73
2022/12/27 06:08:31;;;;;;;;;13.40;13.40;;;;;;;;5166064;28;8795;-71
2022/12/27 06:11:07;;;;;;;;;14.20;14.20;;;;;;;;5181130;28;8810;-73
2022/12/27 06:13:39;;;;;;;;;11.00;10.20;;;;;;;;5181204;28;8818;-71
2022/12/27 06:16:11;;;;;;;;;15.80;15.80;;;;;;;;5164543;28;8822;-74
2022/12/27 06:18:42;;;;;;;;;34.20;32.60;;;;;;;;5180038;28;8825;-73
2022/12/27 06:21:14;;;;;;;;;29.80;29.20;;;;;;;;5167057;28;8856;-72
2022/12/27 06:23:45;;;;;;;;;30.60;27.60;;;;;;;;5177230;28;9344;-75
2022/12/27 06:26:21;;;;;;;;;33.00;30.00;;;;;;;;5161026;28;8820;-74
2022/12/27 06:28:53;;;;;;;;;24.60;24.20;;;;;;;;5160659;28;8805;-72
2022/12/27 06:31:43;;;;;;;;;18.00;18.00;;;;;;;;5172534;28;8839;-72
2022/12/27 06:34:14;;;;;;;;;20.60;18.80;;;;;;;;5179847;28;9597;-71
2022/12/27 06:36:49;;;;;;;;;19.80;19.40;;;;;;;;5163617;28;8827;-77
2022/12/27 06:39:20;;;;;;;;;34.60;33.40;;;;;;;;5178715;28;8841;-72
2022/12/27 06:41:54;;;;;;;;;33.80;32.20;;;;;;;;5184010;28;8815;-71
2022/12/27 06:44:25;;;;;;;;;34.80;33.40;;;;;;;;5168064;28;8813;-70
2022/12/27 06:46:56;;;;;;;;;20.60;19.40;;;;;;;;5184043;28;8783;-72
2022/12/27 06:49:28;;;;;;;;;15.80;15.20;;;;;;;;5176877;28;9541;-69
2022/12/27 06:51:59;;;;;;;;;14.60;14.20;;;;;;;;5163997;28;8813;-72
2022/12/27 06:54:30;;;;;;;;;13.00;13.00;;;;;;;;5181069;28;8803;-71
2022/12/27 06:57:01;;;;;;;;;12.20;12.20;;;;;;;;5166419;28;8799;-71
2022/12/27 06:59:50;;;;;;;;;10.60;9.60;;;;;;;;5182771;28;8826;-73
2022/12/27 07:02:21;;;;;;;;;15.60;15.60;;;;;;;;5162809;28;8804;-72
2022/12/27 07:04:52;;;;;;;;;21.80;20.20;;;;;;;;5158404;28;9541;-73
2022/12/27 07:07:23;;;;;;;;;17.40;16.80;;;;;;;;5167298;28;8795;-73
2022/12/27 07:09:54;;;;;;;;;24.00;23.60;;;;;;;;5183242;28;8807;-73
2022/12/27 07:12:26;;;;;;;;;17.20;15.00;;;;;;;;5183635;28;8799;-70
2022/12/27 07:14:57;;;;;;;;;29.60;28.80;;;;;;;;5199360;28;8792;-71
2022/12/27 07:17:27;;;;;;;;;18.50;18.50;;;;;;;;5197658;28;8811;-71
2022/12/27 07:19:58;;;;;;;;;18.75;17.00;;;;;;;;5187003;28;11566;-72
2022/12/27 07:22:32;;;;;;;;;18.20;17.40;;;;;;;;5186878;28;11115;-70
2022/12/27 07:25:04;;;;;;;;;10.80;10.80;;;;;;;;5186807;28;8815;-71
2022/12/27 07:27:36;;;;;;;;;12.00;12.00;;;;;;;;5194389;28;8787;-69
2022/12/27 07:30:07;;;;;;;;;16.80;16.80;;;;;;;;5166935;28;8807;-68
2022/12/27 07:32:39;;;;;;;;;21.00;18.20;;;;;;;;5166694;28;8787;-68
2022/12/27 07:35:11;;;;;;;;;23.20;22.40;;;;;;;;5196263;28;9538;-68
2022/12/27 07:37:42;;;;;;;;;15.80;15.80;;;;;;;;5187058;28;9515;-69
2022/12/27 07:40:13;;;;;;;;;11.60;11.60;;;;;;;;5191442;28;8862;-69
2022/12/27 07:42:44;;;;;;;;;11.80;11.80;;;;;;;;5203301;28;8910;-69
2022/12/27 07:45:15;;;;;;;;;10.00;10.00;;;;;;;;5186272;28;8936;-70
2022/12/27 07:47:46;;;;;;;;;13.20;13.20;;;;;;;;5203383;28;8769;-68
2022/12/27 07:50:17;;;;;;;;;16.20;15.40;;;;;;;;5203158;28;8828;-69
2022/12/27 07:52:49;;;;;;;;;13.40;13.40;;;;;;;;5203356;28;8814;-71
2022/12/27 07:55:20;;;;;;;;;8.60;8.60;;;;;;;;5203126;28;8804;-76
2022/12/27 07:57:51;;;;;;;;;15.75;15.75;;;;;;;;5202960;28;8879;-70
2022/12/27 08:00:45;;;;;;;;;15.00;15.00;;;;;;;;5203821;28;11548;-70
2022/12/27 08:03:41;;;;;;;;;11.40;11.40;;;;;;;;5188174;28;8789;-71
2022/12/27 08:06:33;;;;;;;;;11.80;11.80;;;;;;;;5203869;28;8823;-69
2022/12/27 08:09:05;;;;;;;;;13.40;13.40;;;;;;;;5181665;28;8822;-69
2022/12/27 08:11:36;;;;;;;;;16.00;16.00;;;;;;;;5196293;28;8923;-69
2022/12/27 08:14:07;;;;;;;;;13.40;13.40;;;;;;;;5201918;28;8776;-71
2022/12/27 08:16:38;;;;;;;;;10.00;10.00;;;;;;;;5202989;28;8835;-68
2022/12/27 08:19:09;;;;;;;;;6.00;6.00;;;;;;;;5201505;28;8812;-70
2022/12/27 08:21:40;;;;;;;;;5.50;5.50;;;;;;;;5202884;28;8828;-69
2022/12/27 08:24:30;;;;;;;;;15.00;14.20;;;;;;;;5202924;28;12231;-68
2022/12/27 08:27:01;;;;;;;;;7.80;7.80;;;;;;;;5187839;28;8796;-68
2022/12/27 08:29:50;;;;;;;;;6.60;6.60;;;;;;;;5206003;28;8978;-69
2022/12/27 08:32:39;;;;;;;;;4.00;4.00;;;;;;;;5207160;28;8922;-68
2022/12/27 08:35:10;;;;;;;;;3.25;3.25;;;;;;;;5189456;28;8915;-69
2022/12/27 08:37:41;;;;;;;;;17.00;16.25;;;;;;;;5173163;28;11616;-68
2022/12/27 08:40:11;;;;;;;;;34.50;32.50;;;;;;;;5194883;28;8846;-69
2022/12/27 08:42:43;;;;;;;;;12.20;12.00;;;;;;;;5220995;28;8800;-69
2022/12/27 08:45:14;;;;;;;;;6.25;6.25;;;;;;;;5222534;28;8852;-68
2022/12/27 08:47:45;;;;;;;;;10.25;10.25;;;;;;;;5202762;28;9539;-68
2022/12/27 08:50:16;;;;;;;;;12.00;12.00;;;;;;;;5207529;28;9491;-69
2022/12/27 08:52:47;;;;;;;;;16.50;16.50;;;;;;;;5207014;28;8815;-69
2022/12/27 08:55:18;;;;;;;;;10.00;9.00;;;;;;;;5174141;28;9571;-69
2022/12/27 08:57:49;;;;;;;;;4.75;4.75;;;;;;;;5206440;28;10793;-69
2022/12/27 09:00:19;;;;;;;;;14.50;14.50;;;;;;;;5189829;28;10986;-69
2022/12/27 09:02:51;;;;;;;;;18.25;16.50;;;;;;;;5207359;28;8827;-69
2022/12/27 09:05:22;;;;;;;;;19.80;19.80;;;;;;;;5223032;28;10313;-68
2022/12/27 09:07:53;;;;;;;;;6.60;6.60;;;;;;;;5194838;28;9610;-68
2022/12/27 09:10:24;;;;;;;;;15.80;15.00;;;;;;;;5194363;28;8940;-69
2022/12/27 09:12:55;;;;;;;;;13.00;13.00;;;;;;;;5210116;28;8806;-67
2022/12/27 09:15:26;;;;;;;;;14.20;14.20;;;;;;;;5211037;28;11105;-68
2022/12/27 09:17:58;;;;;;;;;17.80;17.20;;;;;;;;5177606;28;9018;-68
2022/12/27 09:20:47;;;;;;;;;18.20;18.20;;;;;;;;5210980;28;8807;-67
2022/12/27 09:23:20;;;;;;;;;9.75;9.25;;;;;;;;5194619;28;8775;-68
2022/12/27 09:25:52;;;;;;;;;22.00;18.20;;;;;;;;5195157;28;8767;-68
2022/12/27 09:28:27;;;;;;;;;26.75;23.00;;;;;;;;5210707;28;8779;-69
2022/12/27 09:31:10;;;;;;;;;43.40;37.00;;;;;;;;5194959;28;11708;-68
2022/12/27 09:33:41;;;;;;;;;48.20;41.00;;;;;;;;5209748;28;8917;-68
2022/12/27 09:36:30;;;;;;;;;35.40;27.20;;;;;;;;5210087;28;8763;-69
2022/12/27 09:39:02;;;;;;;;;39.20;33.80;;;;;;;;5209101;28;8789;-67
2022/12/27 09:41:42;;;;;;;;;32.20;31.60;;;;;;;;5209480;28;8855;-68
2022/12/27 09:44:31;;;;;;;;;35.80;34.00;;;;;;;;5209581;28;8868;-68
2022/12/27 09:47:07;;;;;;;;;24.60;24.00;;;;;;;;5193356;28;8787;-68
2022/12/27 09:49:40;;;;;;;;;43.20;39.40;;;;;;;;5210538;28;8806;-68
2022/12/27 09:52:37;;;;;;;;;31.00;30.00;;;;;;;;5195042;28;8805;-69
2022/12/27 09:55:32;;;;;;;;;40.20;34.80;;;;;;;;5227841;28;8787;-68
2022/12/27 09:58:14;;;;;;;;;39.40;36.00;;;;;;;;5194062;28;8775;-68
2022/12/27 10:00:49;;;;;;;;;27.60;24.00;;;;;;;;5193386;28;8825;-68
2022/12/27 10:03:32;;;;;;;;;28.20;28.20;;;;;;;;5193628;28;8795;-68
2022/12/27 10:06:22;;;;;;;;;13.40;13.40;;;;;;;;5209306;28;8775;-67
2022/12/27 10:09:00;;;;;;;;;4.40;4.40;;;;;;;;5209737;28;8871;-68
2022/12/27 10:11:46;;;;;;;;;24.40;19.40;;;;;;;;5210297;28;8901;-68
2022/12/27 10:14:16;;;;;;;;;17.00;17.00;;;;;;;;5210442;28;8791;-69
2022/12/27 10:17:27;;;;;;;;;13.20;11.40;;;;;;;;5212416;28;8783;-69
2022/12/27 10:20:17;;;;;;;;;8.40;7.60;;;;;;;;5191370;28;8854;-68
2022/12/27 10:22:51;;;;;;;;;18.60;17.40;;;;;;;;5192386;28;8814;-68
2022/12/27 10:25:23;;;;;;;;;19.40;17.40;;;;;;;;5191995;28;8775;-68
2022/12/27 10:27:58;;;;;;;;;8.80;8.40;;;;;;;;5175820;28;8790;-69
2022/12/27 10:30:30;;;;;;;;;16.80;16.80;;;;;;;;5226484;28;9517;-68
2022/12/27 10:33:29;;;;;;;;;23.80;23.60;;;;;;;;5208470;28;8825;-68
2022/12/27 10:36:05;;;;;;;;;20.20;19.40;;;;;;;;5227099;28;8790;-69
2022/12/27 10:38:37;;;;;;;;;15.80;14.60;;;;;;;;5208955;28;8787;-69
2022/12/27 10:41:17;;;;;;;;;12.50;12.50;;;;;;;;5221741;28;8826;-67
2022/12/27 10:44:12;;;;;;;;;16.20;15.80;;;;;;;;5218234;28;9459;-67
2022/12/27 10:46:49;;;;;;;;;23.20;21.60;;;;;;;;5168192;28;8787;-68
2022/12/27 10:49:27;;;;;;;;;21.60;21.60;;;;;;;;5207997;28;8929;-67
2022/12/27 10:52:08;;;;;;;;;33.20;29.00;;;;;;;;5208636;28;8798;-67
2022/12/27 10:54:58;;;;;;;;;20.20;20.20;;;;;;;;5200133;28;8805;-67
2022/12/27 10:57:32;;;;;;;;;24.20;24.20;;;;;;;;5186077;28;8828;-68
2022/12/27 11:00:09;;;;;;;;;23.20;23.20;;;;;;;;5185883;28;9686;-68
2022/12/27 11:02:51;;;;;;;;;26.00;26.00;;;;;;;;5210996;28;8790;-70
2022/12/27 11:05:26;;;;;;;;;29.60;27.60;;;;;;;;5205830;28;8839;-68
2022/12/27 11:08:00;;;;;;;;;31.40;30.20;;;;;;;;5191440;28;8804;-71
2022/12/27 11:10:30;;;;;;;;;28.60;28.40;;;;;;;;5225851;28;8924;-69
2022/12/27 11:13:05;;;;;;;;;17.50;13.00;;;;;;;;5224229;28;8930;-70
2022/12/27 11:15:39;;;;;;;;;18.40;18.40;;;;;;;;5175337;28;9966;-69
2022/12/27 11:18:30;;;;;;;;;14.60;12.20;;;;;;;;5205591;28;8979;-69
2022/12/27 11:21:02;;;;;;;;;14.60;13.80;;;;;;;;5212831;28;8803;-69
2022/12/27 11:23:35;;;;;;;;;6.00;6.00;;;;;;;;5190487;28;8779;-67
2022/12/27 11:26:06;;;;;;;;;14.60;14.60;;;;;;;;5191120;28;8782;-68
2022/12/27 11:28:39;;;;;;;;;18.80;18.80;;;;;;;;5208312;28;8779;-69
2022/12/27 11:31:12;;;;;;;;;24.80;23.60;;;;;;;;5226149;28;8811;-69
2022/12/27 11:33:45;;;;;;;;;29.80;29.40;;;;;;;;5225887;28;8778;-70
2022/12/27 11:36:31;;;;;;;;;27.20;25.80;;;;;;;;5208658;28;8791;-70
2022/12/27 11:39:03;;;;;;;;;20.20;20.20;;;;;;;;5191281;28;8779;-68
2022/12/27 11:41:34;;;;;;;;;25.00;24.40;;;;;;;;5207396;28;9509;-69
2022/12/27 11:44:11;;;;;;;;;20.50;18.75;;;;;;;;5225476;28;8779;-68
2022/12/27 11:46:49;;;;;;;;;21.80;21.80;;;;;;;;5190166;28;9522;-71
2022/12/27 11:49:21;;;;;;;;;22.80;20.80;;;;;;;;5207928;28;8802;-69
2022/12/27 11:52:13;;;;;;;;;18.20;17.40;;;;;;;;5191024;28;8798;-68
2022/12/27 11:55:02;;;;;;;;;18.40;18.40;;;;;;;;5206377;28;8799;-68
2022/12/27 11:57:42;;;;;;;;;19.80;19.80;;;;;;;;5207361;28;8791;-68
2022/12/27 12:00:18;;;;;;;;;22.80;22.60;;;;;;;;5222452;28;8834;-70
2022/12/27 12:03:04;;;;;;;;;24.40;22.20;;;;;;;;5199604;28;8781;-69
2022/12/27 12:05:42;;;;;;;;;34.20;33.20;;;;;;;;5195039;28;8806;-69
2022/12/27 12:08:13;;;;;;;;;40.60;38.60;;;;;;;;5211555;28;8844;-70
2022/12/27 12:10:52;;;;;;;;;30.40;28.80;;;;;;;;5211317;28;8791;-69
2022/12/27 12:13:35;;;;;;;;;32.20;28.80;;;;;;;;5229156;28;8845;-69
2022/12/27 12:16:25;;;;;;;;;31.60;30.60;;;;;;;;5211284;28;8779;-69
2022/12/27 12:19:07;;;;;;;;;20.00;18.60;;;;;;;;5229348;28;9501;-68
2022/12/27 12:21:57;;;;;;;;;20.20;20.20;;;;;;;;5195086;28;8887;-68
2022/12/27 12:24:49;;;;;;;;;21.20;21.20;;;;;;;;5229017;28;8775;-68
2022/12/27 12:27:23;;;;;;;;;16.80;16.80;;;;;;;;5194973;28;8797;-69
2022/12/27 12:30:14;;;;;;;;;24.20;23.80;;;;;;;;5194454;28;8816;-68
2022/12/27 12:33:03;;;;;;;;;18.40;17.60;;;;;;;;5210864;28;8791;-69
2022/12/27 12:35:45;;;;;;;;;16.00;16.00;;;;;;;;5210937;28;8817;-68
2022/12/27 12:38:20;;;;;;;;;21.80;21.40;;;;;;;;5210879;28;8795;-67
2022/12/27 12:41:10;;;;;;;;;22.40;21.60;;;;;;;;5193936;28;8960;-69
2022/12/27 12:43:58;;;;;;;;;13.80;13.80;;;;;;;;5209476;28;8758;-68
2022/12/27 12:46:36;;;;;;;;;87.80;70.00;;;;;;;;5210404;28;8810;-68
2022/12/27 12:49:26;;;;;;;;;20.20;20.20;;;;;;;;5210457;28;8783;-68
2022/12/27 12:52:05;;;;;;;;;41.00;40.00;;;;;;;;5210924;28;8871;-68
2022/12/27 12:54:39;;;;;;;;;22.00;22.00;;;;;;;;5210297;28;8799;-68
2022/12/27 12:57:13;;;;;;;;;20.80;19.60;;;;;;;;5228202;28;8775;-68
2022/12/27 13:00:05;;;;;;;;;21.00;21.00;;;;;;;;5210312;28;8775;-69
2022/12/27 13:02:48;;;;;;;;;30.40;29.00;;;;;;;;5194626;28;8763;-70
2022/12/27 13:05:25;;;;;;;;;38.60;29.40;;;;;;;;5228141;28;8823;-69
2022/12/27 13:08:11;;;;;;;;;29.60;27.80;;;;;;;;5227768;28;8785;-70
2022/12/27 13:11:06;;;;;;;;;31.20;30.60;;;;;;;;5179008;28;9634;-69
2022/12/27 13:14:26;;;;;;;;;36.00;36.00;;;;;;;;5175222;28;8805;-69
2022/12/27 13:17:02;;;;;;;;;27.00;25.60;;;;;;;;5160828;28;8793;-70
2022/12/27 13:19:56;;;;;;;;;26.00;25.20;;;;;;;;5175718;28;8806;-70
2022/12/27 13:22:38;;;;;;;;;25.00;23.60;;;;;;;;5171553;28;8785;-71
2022/12/27 13:25:37;;;;;;;;;18.80;18.80;;;;;;;;5206803;28;9012;-71
2022/12/27 13:28:41;;;;;;;;;18.20;18.00;;;;;;;;5225344;28;8826;-70
2022/12/27 13:31:41;;;;;;;;;14.40;14.40;;;;;;;;5208325;28;8803;-70
2022/12/27 13:34:35;;;;;;;;;18.20;16.40;;;;;;;;5191977;28;8801;-69
2022/12/27 13:37:25;;;;;;;;;12.60;12.60;;;;;;;;5192652;28;8901;-70
2022/12/27 13:40:16;;;;;;;;;11.60;11.60;;;;;;;;5225482;28;8763;-71
2022/12/27 13:43:23;;;;;;;;;12.60;12.60;;;;;;;;5192930;28;8935;-70
2022/12/27 13:46:21;;;;;;;;;11.20;10.40;;;;;;;;5161897;28;8805;-71
2022/12/27 13:49:11;;;;;;;;;15.60;15.20;;;;;;;;5203254;28;8927;-71
2022/12/27 13:51:51;;;;;;;;;24.40;24.40;;;;;;;;5203409;28;8789;-73
2022/12/27 13:54:28;;;;;;;;;0.00;0.00;;;;;;;;5192002;28;8801;-73
2022/12/27 13:57:10;;;;;;;;;21.60;19.40;;;;;;;;5190675;28;9778;-72
2022/12/27 13:59:44;;;;;;;;;15.20;15.20;;;;;;;;5175083;28;8802;-70
2022/12/27 14:02:15;;;;;;;;;21.00;21.00;;;;;;;;5207343;28;8919;-69
2022/12/27 14:05:02;;;;;;;;;48.50;42.50;;;;;;;;5224765;28;8830;-69
2022/12/27 14:07:45;;;;;;;;;23.80;23.80;;;;;;;;5207307;28;8809;-71
2022/12/27 14:10:28;;;;;;;;;9.80;9.80;;;;;;;;5207790;28;8875;-70
2022/12/27 14:13:09;;;;;;;;;6.00;6.00;;;;;;;;5190583;28;8837;-71
2022/12/27 14:15:49;;;;;;;;;10.00;10.00;;;;;;;;5207224;28;8803;-71
2022/12/27 14:18:26;;;;;;;;;10.60;10.60;;;;;;;;5191157;28;8819;-70
2022/12/27 14:21:15;;;;;;;;;2.60;2.60;;;;;;;;5207719;28;8879;-72
2022/12/27 14:24:24;;;;;;;;;9.00;8.60;;;;;;;;5208079;28;8805;-70
2022/12/27 14:27:05;;;;;;;;;13.40;12.60;;;;;;;;5176099;28;8871;-71
2022/12/27 14:29:46;;;;;;;;;7.00;7.00;;;;;;;;5225001;28;8799;-71
2022/12/27 14:32:49;;;;;;;;;9.00;9.00;;;;;;;;5191258;28;11037;-70
2022/12/27 14:35:26;;;;;;;;;12.20;12.20;;;;;;;;5149169;28;8903;-69
2022/12/27 14:38:00;;;;;;;;;15.80;12.80;;;;;;;;5167178;28;8833;-69
2022/12/27 14:45:13;;;;;;;;;6.40;6.40;;;;;;;;5226277;28;8707;-69
2022/12/27 14:47:50;;;;;;;;;4.40;4.40;;;;;;;;5209765;28;8844;-67
2022/12/27 14:50:39;;;;;;;;;5.60;5.60;;;;;;;;5209026;28;8810;-68
2022/12/27 14:53:35;;;;;;;;;4.00;4.00;;;;;;;;5227607;28;8779;-70
2022/12/27 14:56:24;;;;;;;;;10.00;10.00;;;;;;;;5196797;28;8779;-70
2022/12/27 14:59:14;;;;;;;;;10.00;10.00;;;;;;;;5219593;28;8795;-69
2022/12/27 15:01:44;;;;;;;;;15.00;15.00;;;;;;;;5201155;28;8841;-71
2022/12/27 15:04:31;;;;;;;;;15.80;15.80;;;;;;;;5214041;28;8810;-69
2022/12/27 15:07:21;;;;;;;;;3.20;3.20;;;;;;;;5194307;28;8806;-69
2022/12/27 15:10:03;;;;;;;;;15.60;15.40;;;;;;;;5211925;28;8797;-69
2022/12/27 15:12:45;;;;;;;;;21.80;21.80;;;;;;;;5194109;28;8794;-69
2022/12/27 15:15:20;;;;;;;;;18.00;18.00;;;;;;;;5192805;28;8983;-68
2022/12/27 15:18:11;;;;;;;;;79.60;61.60;;;;;;;;5208481;28;9532;-69
2022/12/27 15:24:10;;;;;;;;;6.40;6.40;;;;;;;;5193918;28;8970;-70
2022/12/27 15:26:51;;;;;;;;;5.20;5.20;;;;;;;;5192718;28;8775;-69
2022/12/27 15:29:25;;;;;;;;;6.20;6.20;;;;;;;;5208535;28;8856;-69
2022/12/27 15:32:06;;;;;;;;;10.60;10.60;;;;;;;;5191958;28;8810;-69
2022/12/27 15:34:37;;;;;;;;;10.40;10.40;;;;;;;;5209069;28;8822;-69
2022/12/27 15:37:40;;;;;;;;;9.20;9.00;;;;;;;;5207592;28;8787;-69
2022/12/27 15:40:31;;;;;;;;;8.60;8.60;;;;;;;;5192291;28;8841;-70
2022/12/27 15:43:06;;;;;;;;;9.60;9.60;;;;;;;;5181778;28;8818;-70
2022/12/27 15:45:45;;;;;;;;;15.20;14.80;;;;;;;;5191788;28;8799;-69
2022/12/27 15:48:37;;;;;;;;;25.00;22.20;;;;;;;;5208447;28;9517;-69
2022/12/27 15:51:36;;;;;;;;;12.60;12.20;;;;;;;;5193632;28;8817;-70
2022/12/27 15:54:25;;;;;;;;;10.80;10.80;;;;;;;;5208423;28;8759;-70
2022/12/27 15:57:19;;;;;;;;;4.20;4.20;;;;;;;;5207950;28;8868;-70
2022/12/27 16:00:13;;;;;;;;;5.40;5.40;;;;;;;;5191789;28;8834;-69
2022/12/27 16:02:47;;;;;;;;;2.80;2.80;;;;;;;;5207493;28;8787;-70
2022/12/27 16:05:21;;;;;;;;;4.80;4.80;;;;;;;;5175187;28;8818;-70
2022/12/27 16:08:20;;;;;;;;;10.40;10.40;;;;;;;;5191272;28;8786;-70
2022/12/27 16:10:52;;;;;;;;;28.40;27.40;;;;;;;;5183198;28;8821;-72
2022/12/27 16:13:30;;;;;;;;;36.60;33.40;;;;;;;;5208065;28;8794;-70
2022/12/27 16:16:02;;;;;;;;;26.60;26.00;;;;;;;;5191266;28;8791;-72
2022/12/27 16:18:43;;;;;;;;;29.80;27.20;;;;;;;;5190890;28;8805;-69
2022/12/27 16:21:25;;;;;;;;;13.40;13.40;;;;;;;;5207622;28;8941;-69
2022/12/27 16:23:59;;;;;;;;;61.20;49.00;;;;;;;;5225350;28;8783;-70
2022/12/27 16:26:45;;;;;;;;;6.80;6.80;;;;;;;;5192323;28;8872;-70
2022/12/27 16:29:16;;;;;;;;;4.00;4.00;;;;;;;;5191722;28;8864;-70
2022/12/27 16:31:48;;;;;;;;;5.60;5.60;;;;;;;;5190987;28;8824;-70
2022/12/27 16:34:24;;;;;;;;;8.60;8.60;;;;;;;;5174474;28;9501;-70
2022/12/27 16:36:57;;;;;;;;;8.00;7.80;;;;;;;;5207114;28;9536;-70
2022/12/27 16:39:28;;;;;;;;;7.00;7.00;;;;;;;;5206942;28;8787;-69
2022/12/27 16:42:01;;;;;;;;;8.75;8.75;;;;;;;;5190387;28;8830;-69
2022/12/27 16:49:22;;;;;;;;;40.60;37.80;;;;;;;;5228597;28;8731;-72
2022/12/27 16:52:02;;;;;;;;;24.80;24.80;;;;;;;;5212643;28;8799;-72
2022/12/27 16:54:52;;;;;;;;;18.60;17.00;;;;;;;;5194408;28;9482;-71
2022/12/27 16:57:23;;;;;;;;;19.40;18.00;;;;;;;;5229160;28;9535;-71
2022/12/27 17:12:30;;;;;;;;;7.00;7.00;;;;;;;;5228551;28;8743;-70
2022/12/27 17:15:03;;;;;;;;;7.40;5.40;;;;;;;;5210521;28;8779;-71
2022/12/27 17:17:35;;;;;;;;;16.40;15.60;;;;;;;;5194457;28;8813;-70
2022/12/27 17:20:11;;;;;;;;;12.00;12.00;;;;;;;;5193808;28;8798;-70
2022/12/27 17:23:04;;;;;;;;;18.00;15.20;;;;;;;;5210340;28;8767;-70
2022/12/27 17:26:02;;;;;;;;;16.40;16.40;;;;;;;;5227813;28;8830;-68
2022/12/27 17:28:39;;;;;;;;;10.60;9.60;;;;;;;;5223087;28;8815;-70
2022/12/27 17:31:19;;;;;;;;;7.00;7.00;;;;;;;;5219545;28;8833;-71
2022/12/27 17:34:16;;;;;;;;;8.00;7.40;;;;;;;;5199200;28;8817;-71
2022/12/27 17:37:34;;;;;;;;;;;;;;;;;;;;;
2022/12/27 17:44:36;;;;;;;;;5.60;5.60;;;;;;;;5188426;28;9500;-69
2022/12/27 17:49:28;;;;;;;;;10.00;9.00;;;;;;;;5156491;28;8897;-71
2022/12/27 17:59:40;;;;;;;;;4.00;4.00;;;;;;;;5206147;28;8820;-69
2022/12/27 18:02:11;;;;;;;;;6.40;6.40;;;;;;;;5189144;28;8817;-68
2022/12/27 18:04:47;;;;;;;;;9.00;9.00;;;;;;;;5205339;28;8793;-69